createdAt,value
2022-10-11T00:02:10.587Z,9.60
2022-10-11T00:05:12.199Z,9.00
2022-10-11T00:08:14.231Z,8.80
2022-10-11T00:11:15.918Z,9.00
2022-10-11T00:14:17.531Z,8.50
2022-10-11T00:17:19.131Z,8.80
2022-10-11T00:20:20.843Z,8.90
2022-10-11T00:23:22.392Z,8.37
2022-10-11T00:26:23.977Z,8.03
2022-10-11T00:29:25.572Z,8.17
2022-10-11T00:32:27.537Z,12.00
2022-10-11T00:35:29.079Z,14.20
2022-10-11T00:38:32.012Z,10.00
2022-10-11T00:41:33.786Z,17.17
2022-10-11T00:44:35.386Z,10.17
2022-10-11T00:47:37.000Z,7.73
2022-10-11T00:50:38.559Z,8.93
2022-10-11T00:53:40.344Z,7.03
2022-10-11T00:56:43.115Z,8.00
2022-10-11T00:59:47.916Z,8.53
2022-10-11T01:02:49.789Z,8.80
2022-10-11T01:05:51.583Z,8.93
2022-10-11T01:08:53.307Z,8.00
2022-10-11T01:11:57.295Z,8.00
2022-10-11T01:15:01.586Z,10.27
2022-10-11T01:18:06.759Z,7.90
2022-10-11T01:21:26.783Z,8.80
2022-10-11T01:24:43.387Z,7.93
2022-10-11T01:27:57.120Z,7.40
2022-10-11T01:31:03.952Z,8.07
2022-10-11T01:34:07.884Z,7.10
2022-10-11T01:37:13.882Z,7.53
2022-10-11T01:40:15.418Z,7.00
2022-10-11T01:43:18.325Z,7.50
2022-10-11T01:46:20.114Z,7.90
2022-10-11T01:49:22.072Z,7.40
2022-10-11T01:52:24.304Z,7.70
2022-10-11T01:55:30.367Z,8.53
2022-10-11T01:58:31.936Z,8.13
2022-10-11T02:01:42.424Z,8.57
2022-10-11T02:05:02.392Z,8.27
2022-10-11T02:08:19.434Z,8.90
2022-10-11T02:11:31.550Z,8.77
2022-10-11T02:14:35.392Z,8.50
2022-10-11T02:17:41.595Z,8.57
2022-10-11T02:20:44.416Z,8.67
2022-10-11T02:23:49.242Z,8.93
2022-10-11T02:26:54.639Z,9.50
2022-10-11T02:29:57.981Z,9.63
2022-10-11T02:33:02.764Z,9.20
2022-10-11T02:36:10.997Z,8.33
2022-10-11T02:39:16.216Z,8.53
2022-10-11T02:42:20.625Z,9.00
2022-10-11T02:45:31.795Z,8.57
2022-10-11T02:48:33.632Z,8.47
2022-10-11T02:51:36.142Z,8.47
2022-10-11T02:54:37.776Z,8.33
2022-10-11T02:57:39.378Z,8.83
2022-10-11T03:00:41.109Z,9.67
2022-10-11T03:03:42.716Z,9.10
2022-10-11T03:06:44.288Z,8.03
2022-10-11T03:09:45.948Z,8.87
2022-10-11T03:12:47.642Z,8.30
2022-10-11T03:16:01.966Z,8.83
2022-10-11T03:19:04.719Z,7.93
2022-10-11T03:22:06.280Z,8.23
2022-10-11T03:25:08.044Z,8.80
2022-10-11T03:28:09.646Z,7.83
2022-10-11T03:31:11.283Z,8.20
2022-10-11T03:34:12.889Z,8.90
2022-10-11T03:37:14.642Z,8.83
2022-10-11T03:40:16.255Z,8.50
2022-10-11T03:43:17.824Z,8.80
2022-10-11T03:46:19.415Z,8.90
2022-10-11T03:49:21.014Z,8.90
2022-10-11T03:52:22.947Z,9.90
2022-10-11T03:55:24.680Z,9.03
2022-10-11T03:58:26.249Z,9.80
2022-10-11T04:01:28.008Z,9.07
2022-10-11T04:04:29.680Z,9.67
2022-10-11T04:07:31.235Z,9.10
2022-10-11T04:10:32.826Z,9.13
2022-10-11T04:13:34.403Z,8.63
2022-10-11T04:16:38.726Z,10.57
2022-10-11T04:19:40.413Z,8.73
2022-10-11T04:22:42.187Z,7.87
2022-10-11T04:25:45.537Z,7.90
2022-10-11T04:28:47.184Z,8.60
2022-10-11T04:31:48.934Z,9.27
2022-10-11T04:34:51.342Z,9.83
2022-10-11T04:37:52.932Z,9.60
2022-10-11T04:40:54.501Z,11.40
2022-10-11T04:43:56.250Z,11.13
2022-10-11T04:46:57.866Z,11.43
2022-10-11T04:49:59.450Z,11.97
2022-10-11T04:53:01.043Z,10.47
2022-10-11T04:56:07.821Z,12.47
2022-10-11T04:59:09.754Z,11.17
2022-10-11T05:02:11.400Z,11.67
2022-10-11T05:05:17.407Z,10.97
2022-10-11T05:08:19.289Z,11.57
2022-10-11T05:11:20.922Z,11.07
2022-10-11T05:14:22.450Z,11.13
2022-10-11T05:17:24.005Z,10.73
2022-10-11T05:20:26.128Z,11.77
2022-10-11T05:23:28.337Z,11.07
2022-10-11T05:26:29.918Z,10.57
2022-10-11T05:29:31.510Z,12.13
2022-10-11T05:32:33.653Z,13.63
2022-10-11T05:35:35.220Z,13.93
2022-10-11T05:38:37.271Z,11.83
2022-10-11T05:41:38.869Z,11.50
2022-10-11T05:44:40.426Z,11.30
2022-10-11T05:47:42.040Z,11.73
2022-10-11T05:50:43.645Z,11.90
2022-10-11T05:53:45.228Z,11.40
2022-10-11T05:56:46.774Z,11.87
2022-10-11T05:59:48.386Z,12.20
2022-10-11T06:02:50.235Z,11.37
2022-10-11T06:05:56.524Z,12.33
2022-10-11T06:08:58.666Z,13.07
2022-10-11T06:12:00.425Z,13.00
2022-10-11T06:15:02.535Z,13.67
2022-10-11T06:18:04.351Z,13.37
2022-10-11T06:21:06.674Z,13.07
2022-10-11T06:24:09.353Z,11.37
2022-10-11T06:27:11.134Z,10.63
2022-10-11T06:30:12.819Z,9.83
2022-10-11T06:33:14.420Z,9.17
2022-10-11T06:36:16.897Z,9.37
2022-10-11T06:39:18.564Z,8.67
2022-10-11T06:42:20.178Z,8.27
2022-10-11T06:45:21.760Z,8.90
2022-10-11T06:48:23.312Z,9.77
2022-10-11T06:51:25.039Z,10.23
2022-10-11T06:54:26.654Z,10.30
2022-10-11T06:57:28.330Z,10.13
2022-10-11T07:00:30.011Z,9.90
2022-10-11T07:03:31.822Z,9.63
2022-10-11T07:06:36.088Z,11.37
2022-10-11T07:09:37.815Z,10.53
2022-10-11T07:12:39.466Z,9.57
2022-10-11T07:15:41.343Z,10.47
2022-10-11T07:18:42.906Z,10.70
2022-10-11T07:21:44.581Z,10.00
2022-10-11T07:24:46.150Z,9.70
2022-10-11T07:27:47.753Z,10.07
2022-10-11T07:30:49.449Z,10.43
2022-10-11T07:33:51.031Z,10.97
2022-10-11T07:36:52.612Z,9.57
2022-10-11T07:39:54.139Z,9.43
2022-10-11T07:42:58.077Z,10.07
2022-10-11T07:46:04.666Z,9.53
2022-10-11T07:49:06.880Z,8.60
2022-10-11T07:52:08.669Z,8.33
2022-10-11T07:55:10.262Z,8.53
2022-10-11T07:58:12.918Z,8.40
2022-10-11T08:01:14.812Z,8.47
2022-10-11T08:04:16.475Z,8.37
2022-10-11T08:07:18.112Z,8.70
2022-10-11T08:10:20.337Z,8.63
2022-10-11T08:13:21.984Z,9.10
2022-10-11T08:16:23.915Z,9.90
2022-10-11T08:19:25.490Z,7.80
2022-10-11T08:22:27.183Z,8.20
2022-10-11T08:25:28.821Z,9.27
2022-10-11T08:28:30.566Z,8.90
2022-10-11T08:31:32.828Z,10.10
2022-10-11T08:34:34.457Z,10.17
2022-10-11T08:37:36.074Z,10.23
2022-10-11T08:40:38.079Z,10.10
2022-10-11T08:43:47.138Z,9.70
2022-10-11T08:47:21.263Z,10.10
2022-10-11T08:50:23.598Z,9.43
2022-10-11T08:53:44.256Z,9.60
2022-10-11T08:56:46.042Z,9.05
2022-10-11T08:59:49.683Z,9.48
2022-10-11T09:03:08.472Z,9.10
2022-10-11T09:06:29.611Z,9.45
2022-10-11T09:09:31.178Z,10.43
2022-10-11T09:12:40.949Z,9.80
2022-10-11T09:15:48.850Z,10.87
2022-10-11T09:18:50.399Z,10.00
2022-10-11T09:21:59.303Z,10.83
2022-10-11T09:25:23.143Z,9.87
2022-10-11T09:28:29.366Z,10.70
2022-10-11T09:31:31.724Z,10.37
2022-10-11T09:34:35.394Z,10.50
2022-10-11T09:37:44.089Z,13.70
2022-10-11T09:40:46.138Z,10.07
2022-10-11T09:43:49.618Z,10.87
2022-10-11T09:46:52.669Z,9.93
2022-10-11T09:49:54.619Z,11.30
2022-10-11T09:53:00.506Z,10.43
2022-10-11T09:56:03.775Z,9.93
2022-10-11T09:59:06.480Z,10.20
2022-10-11T10:02:14.668Z,10.20
2022-10-11T10:05:19.540Z,11.43
2022-10-11T10:08:24.734Z,10.57
2022-10-11T10:11:35.861Z,10.20
2022-10-11T10:14:37.714Z,9.83
2022-10-11T10:17:39.575Z,10.30
2022-10-11T10:20:41.270Z,10.50
2022-10-11T10:23:43.199Z,12.87
2022-10-11T10:27:04.796Z,11.30
2022-10-11T10:30:09.186Z,11.00
2022-10-11T10:33:11.698Z,11.20
2022-10-11T10:36:16.407Z,14.40
2022-10-11T10:39:17.979Z,10.00
2022-10-11T10:42:20.602Z,10.53
2022-10-11T10:45:25.157Z,9.87
2022-10-11T10:49:18.722Z,11.17
2022-10-11T10:52:09.683Z,10.80
2022-10-11T10:55:26.617Z,10.63
2022-10-11T10:58:44.778Z,11.97
2022-10-11T11:02:28.065Z,10.10
2022-10-11T11:05:30.865Z,10.07
2022-10-11T11:08:41.156Z,11.20
2022-10-11T11:11:48.939Z,10.87
2022-10-11T11:15:03.333Z,13.00
2022-10-11T11:18:15.785Z,12.30
2022-10-11T11:21:17.347Z,12.67
2022-10-11T11:24:21.723Z,12.50
2022-10-11T11:27:23.274Z,11.83
2022-10-11T11:30:41.198Z,11.77
2022-10-11T11:34:01.547Z,13.07
2022-10-11T11:37:15.341Z,11.40
2022-10-11T11:40:29.790Z,12.17
2022-10-11T11:43:39.752Z,11.33
2022-10-11T11:46:44.541Z,11.33
2022-10-11T11:49:58.342Z,10.30
2022-10-11T11:53:04.775Z,11.40
2022-10-11T11:56:24.790Z,10.47
2022-10-11T11:59:35.458Z,10.93
2022-10-11T12:02:45.211Z,10.43
2022-10-11T12:06:05.331Z,10.83
2022-10-11T12:09:09.395Z,10.77
2022-10-11T12:12:37.365Z,11.43
2022-10-11T12:15:38.919Z,12.00
2022-10-11T12:18:59.476Z,10.80
2022-10-11T12:22:36.693Z,11.37
2022-10-11T12:25:40.039Z,11.90
2022-10-11T12:28:42.095Z,16.93
2022-10-11T12:31:46.258Z,11.77
2022-10-11T12:34:48.004Z,12.13
2022-10-11T12:37:51.164Z,14.00
2022-10-11T12:41:18.725Z,11.30
2022-10-11T12:44:26.318Z,9.97
2022-10-11T12:47:34.342Z,11.73
2022-10-11T12:50:49.908Z,11.50
2022-10-11T12:54:25.872Z,10.70
2022-10-11T12:57:29.713Z,10.43
2022-10-11T13:00:32.885Z,11.30
2022-10-11T13:03:37.372Z,10.93
2022-10-11T13:06:47.633Z,11.23
2022-10-11T13:09:52.596Z,11.33
2022-10-11T13:12:55.167Z,10.23
2022-10-11T13:15:59.014Z,10.73
2022-10-11T13:19:00.697Z,10.23
2022-10-11T13:22:04.361Z,10.43
2022-10-11T13:25:07.002Z,10.47
2022-10-11T13:28:08.976Z,10.07
2022-10-11T13:31:10.930Z,10.90
2022-10-11T13:34:12.932Z,9.77
2022-10-11T13:37:19.325Z,11.90
2022-10-11T13:40:21.802Z,10.33
2022-10-11T13:43:25.895Z,10.30
2022-10-11T13:46:29.478Z,9.17
2022-10-11T13:49:39.168Z,9.57
2022-10-11T13:52:52.687Z,11.63
2022-10-11T13:55:56.400Z,11.50
2022-10-11T13:58:58.883Z,10.37
2022-10-11T14:02:01.368Z,9.40
2022-10-11T14:05:03.006Z,9.10
2022-10-11T14:08:06.723Z,10.03
2022-10-11T14:11:09.201Z,10.23
2022-10-11T14:14:43.365Z,9.67
2022-10-11T14:17:45.354Z,9.53
2022-10-11T14:20:47.219Z,9.27
2022-10-11T14:23:59.664Z,9.40
2022-10-11T14:27:03.816Z,10.13
2022-10-11T14:30:24.562Z,9.13
2022-10-11T14:33:26.911Z,13.70
2022-10-11T14:36:28.511Z,9.80
2022-10-11T14:39:31.891Z,10.17
2022-10-11T14:42:33.429Z,10.03
2022-10-11T14:45:35.076Z,14.13
2022-10-11T14:48:54.509Z,10.57
2022-10-11T14:51:58.131Z,10.60
2022-10-11T14:55:00.700Z,10.30
2022-10-11T14:58:02.472Z,10.50
2022-10-11T15:01:04.184Z,10.20
2022-10-11T15:04:05.861Z,10.60
2022-10-11T15:07:07.651Z,10.60
2022-10-11T15:10:22.037Z,11.10
2022-10-11T15:13:23.774Z,10.53
2022-10-11T15:16:26.867Z,11.23
2022-10-11T15:19:28.484Z,11.90
2022-10-11T15:22:30.476Z,12.23
2022-10-11T15:25:32.473Z,11.00
2022-10-11T15:28:34.345Z,11.20
2022-10-11T15:31:37.145Z,12.53
2022-10-11T15:34:38.778Z,13.73
2022-10-11T15:37:40.782Z,13.43
2022-10-11T15:40:42.365Z,13.60
2022-10-11T15:43:44.828Z,13.73
2022-10-11T15:46:46.500Z,13.20
2022-10-11T15:49:48.174Z,14.17
2022-10-11T15:52:55.879Z,13.17
2022-10-11T15:55:59.362Z,14.97
2022-10-11T15:59:01.053Z,12.80
2022-10-11T16:02:05.304Z,12.97
2022-10-11T16:05:07.767Z,12.33
2022-10-11T16:08:10.052Z,19.80
2022-10-11T16:11:12.522Z,12.03
2022-10-11T16:14:14.415Z,31.37
2022-10-11T16:17:16.016Z,15.00
2022-10-11T16:20:22.354Z,14.57
2022-10-11T16:23:24.203Z,13.40
2022-10-11T16:26:26.229Z,13.07
2022-10-11T16:29:28.031Z,14.13
2022-10-11T16:32:36.922Z,13.63
2022-10-11T16:35:50.857Z,12.00
2022-10-11T16:38:56.441Z,12.23
2022-10-11T16:41:58.696Z,13.13
2022-10-11T16:45:00.526Z,12.93
2022-10-11T16:48:03.158Z,15.50
2022-10-11T16:51:05.590Z,18.13
2022-10-11T16:54:07.390Z,14.37
2022-10-11T16:57:10.644Z,13.87
2022-10-11T17:00:13.313Z,22.63
2022-10-11T17:03:14.852Z,15.63
2022-10-11T17:06:16.473Z,14.20
2022-10-11T17:09:18.228Z,12.63
2022-10-11T17:12:21.542Z,13.90
2022-10-11T17:15:23.155Z,16.87
2022-10-11T17:18:24.733Z,14.33
2022-10-11T17:21:26.407Z,15.53
2022-10-11T17:24:28.305Z,13.30
2022-10-11T17:27:29.959Z,23.17
2022-10-11T17:30:32.555Z,14.47
2022-10-11T17:33:35.827Z,13.10
2022-10-11T17:36:38.039Z,21.47
2022-10-11T17:39:39.775Z,17.57
2022-10-11T17:42:41.692Z,16.50
2022-10-11T17:45:43.516Z,13.13
2022-10-11T17:48:47.923Z,25.50
2022-10-11T17:51:50.027Z,12.73
2022-10-11T17:54:53.100Z,13.80
2022-10-11T17:57:55.248Z,14.13
2022-10-11T18:01:00.580Z,16.60
2022-10-11T18:04:03.582Z,16.10
2022-10-11T18:07:06.243Z,13.73
2022-10-11T18:10:12.697Z,16.90
2022-10-11T18:13:15.398Z,19.20
2022-10-11T18:16:18.263Z,19.57
2022-10-11T18:19:19.896Z,20.43
2022-10-11T18:22:21.644Z,22.23
2022-10-11T18:25:23.248Z,19.37
2022-10-11T18:28:25.002Z,21.87
2022-10-11T18:31:28.505Z,20.03
2022-10-11T18:34:30.169Z,21.00
2022-10-11T18:37:32.000Z,20.23
2022-10-11T18:40:36.664Z,20.53
2022-10-11T18:43:38.309Z,19.70
2022-10-11T18:46:40.147Z,19.50
2022-10-11T18:49:41.865Z,17.70
2022-10-11T18:52:44.731Z,17.27
2022-10-11T18:55:46.408Z,17.47
2022-10-11T18:58:49.430Z,18.30
2022-10-11T19:01:53.981Z,16.83
2022-10-11T19:04:55.533Z,16.93
2022-10-11T19:07:57.255Z,16.50
2022-10-11T19:11:04.667Z,17.03
2022-10-11T19:14:11.546Z,16.77
2022-10-11T19:17:13.414Z,17.07
2022-10-11T19:20:15.090Z,18.57
2022-10-11T19:23:16.709Z,18.07
2022-10-11T19:26:19.844Z,16.37
2022-10-11T19:29:22.310Z,17.13
2022-10-11T19:32:24.684Z,18.43
2022-10-11T19:35:26.316Z,17.47
2022-10-11T19:38:28.389Z,18.17
2022-10-11T19:41:30.278Z,17.30
2022-10-11T19:44:35.787Z,17.90
2022-10-11T19:47:40.394Z,17.43
2022-10-11T19:50:41.973Z,17.10
2022-10-11T19:53:44.152Z,17.43
2022-10-11T19:56:45.790Z,17.50
2022-10-11T19:59:47.402Z,18.83
2022-10-11T20:02:49.150Z,17.23
2022-10-11T20:05:50.757Z,17.50
2022-10-11T20:09:10.389Z,17.33
2022-10-11T20:12:14.298Z,17.03
2022-10-11T20:15:15.839Z,17.00
2022-10-11T20:18:17.596Z,17.27
2022-10-11T20:21:21.724Z,18.27
2022-10-11T20:24:23.373Z,16.70
2022-10-11T20:27:25.283Z,16.17
2022-10-11T20:30:26.892Z,16.40
2022-10-11T20:33:29.574Z,15.87
2022-10-11T20:36:31.855Z,16.17
2022-10-11T20:39:33.466Z,16.63
2022-10-11T20:42:35.032Z,16.50
2022-10-11T20:45:37.043Z,16.50
2022-10-11T20:48:40.669Z,16.47
2022-10-11T20:51:42.377Z,16.53
2022-10-11T20:54:44.037Z,16.83
2022-10-11T20:57:45.645Z,17.47
2022-10-11T21:00:47.732Z,16.90
2022-10-11T21:03:50.392Z,17.37
2022-10-11T21:06:52.021Z,17.17
2022-10-11T21:09:53.657Z,17.67
2022-10-11T21:12:55.629Z,16.53
2022-10-11T21:16:03.267Z,17.27
2022-10-11T21:19:06.162Z,16.03
2022-10-11T21:22:07.827Z,15.73
2022-10-11T21:25:09.517Z,15.47
2022-10-11T21:28:11.184Z,14.93
2022-10-11T21:31:14.409Z,14.30
2022-10-11T21:34:15.996Z,14.97
2022-10-11T21:37:17.599Z,14.60
2022-10-11T21:40:19.251Z,15.10
2022-10-11T21:43:20.836Z,15.03
2022-10-11T21:49:50.873Z,16.17
2022-10-11T21:52:52.500Z,15.07
2022-10-11T21:56:00.883Z,16.20
2022-10-11T21:59:05.401Z,14.73
2022-10-11T22:02:09.726Z,14.73
2022-10-11T22:05:11.421Z,15.30
2022-10-11T22:08:13.867Z,15.33
2022-10-11T22:11:15.543Z,19.50
2022-10-11T22:14:17.201Z,14.93
2022-10-11T22:17:18.778Z,15.23
2022-10-11T22:20:20.389Z,15.70
2022-10-11T22:23:22.062Z,15.27
2022-10-11T22:26:25.115Z,14.63
2022-10-11T22:29:28.527Z,15.50
2022-10-11T22:32:33.626Z,15.20
2022-10-11T22:35:37.827Z,16.27
2022-10-11T22:38:40.638Z,15.97
2022-10-11T22:41:42.310Z,15.70
2022-10-11T22:44:43.880Z,15.27
2022-10-11T22:47:45.418Z,14.30
2022-10-11T22:50:47.028Z,14.87
2022-10-11T22:53:48.620Z,14.97
2022-10-11T22:56:50.275Z,14.53
2022-10-11T22:59:51.978Z,14.33
2022-10-11T23:02:53.557Z,13.20
2022-10-11T23:05:56.036Z,14.20
2022-10-11T23:08:57.700Z,13.20
2022-10-11T23:11:59.414Z,14.13
2022-10-11T23:15:00.980Z,14.20
2022-10-11T23:18:02.569Z,15.33
2022-10-11T23:21:04.787Z,14.33
2022-10-11T23:24:06.587Z,13.97
2022-10-11T23:27:08.268Z,14.70
2022-10-11T23:30:10.331Z,13.60
2022-10-11T23:33:11.915Z,13.67
2022-10-11T23:36:17.663Z,14.40
2022-10-11T23:39:19.467Z,13.53
2022-10-11T23:42:21.013Z,14.50
2022-10-11T23:45:22.542Z,14.63
2022-10-11T23:48:24.165Z,14.00
2022-10-11T23:51:25.965Z,14.90
2022-10-11T23:54:27.610Z,15.90
2022-10-11T23:57:29.201Z,14.57
